createdAt,value
2019-04-03T00:02:11.983Z,91.00
2019-04-03T00:07:18.881Z,91.60
2019-04-03T00:12:27.213Z,92.70
2019-04-03T00:17:34.586Z,93.90
2019-04-03T00:22:41.986Z,95.20
2019-04-03T00:32:53.175Z,96.30
2019-04-03T00:37:59.442Z,96.00
2019-04-03T00:43:06.261Z,95.90
2019-04-03T00:48:13.095Z,95.80
2019-04-03T00:53:20.355Z,95.50
2019-04-03T00:58:39.526Z,96.00
2019-04-03T01:03:46.741Z,96.00
2019-04-03T01:08:54.250Z,95.60
2019-04-03T01:14:01.633Z,96.40
2019-04-03T01:19:09.061Z,96.60
2019-04-03T01:24:15.159Z,96.50
2019-04-03T01:29:20.978Z,97.00
2019-04-03T01:34:27.122Z,96.70
2019-04-03T01:39:33.073Z,96.80
2019-04-03T01:44:39.208Z,96.70
2019-04-03T01:49:46.432Z,96.90
2019-04-03T01:54:52.695Z,98.20
2019-04-03T01:59:59.658Z,97.60
2019-04-03T02:05:06.590Z,96.90
2019-04-03T02:10:18.288Z,98.10
2019-04-03T02:15:24.566Z,97.50
2019-04-03T02:20:30.939Z,98.50
2019-04-03T02:25:38.152Z,98.20
2019-04-03T02:30:46.879Z,98.00
2019-04-03T02:35:54.918Z,98.70
2019-04-03T02:41:03.996Z,98.90
2019-04-03T02:46:11.367Z,98.80
2019-04-03T02:51:19.714Z,99.30
2019-04-03T02:56:27.649Z,98.30
2019-04-03T03:01:34.031Z,98.50
2019-04-03T03:06:40.330Z,99.20
2019-04-03T03:11:47.301Z,99.60
2019-04-03T03:16:53.771Z,99.60
2019-04-03T03:22:21.289Z,99.60
2019-04-03T03:27:29.112Z,99.60
2019-04-03T03:32:37.491Z,99.60
2019-04-03T03:37:45.027Z,99.60
2019-04-03T03:42:52.453Z,99.60
2019-04-03T03:48:00.114Z,99.60
2019-04-03T03:53:10.170Z,99.60
2019-04-03T03:58:35.581Z,99.60
2019-04-03T04:03:42.551Z,99.60
2019-04-03T04:08:50.980Z,99.60
2019-04-03T04:13:58.368Z,98.60
2019-04-03T04:19:06.700Z,97.70
2019-04-03T04:24:14.367Z,97.50
2019-04-03T04:29:21.863Z,97.70
2019-04-03T04:34:28.904Z,97.90
2019-04-03T04:39:36.886Z,97.90
2019-04-03T04:44:44.831Z,99.00
2019-04-03T04:49:53.094Z,99.60
2019-04-03T04:55:01.367Z,99.60
2019-04-03T05:00:07.769Z,99.60
2019-04-03T05:05:15.037Z,99.60
2019-04-03T05:10:22.326Z,99.60
2019-04-03T05:15:31.563Z,99.60
2019-04-03T05:20:37.685Z,99.60
2019-04-03T05:25:45.449Z,99.60
2019-04-03T05:30:52.865Z,99.60
2019-04-03T05:36:00.400Z,99.60
2019-04-03T05:41:07.215Z,99.60
2019-04-03T05:46:22.762Z,99.60
2019-04-03T05:51:30.765Z,99.60
2019-04-03T05:56:37.130Z,99.60
2019-04-03T06:01:46.748Z,99.60
2019-04-03T06:07:26.504Z,99.50
2019-04-03T06:12:36.689Z,99.60
2019-04-03T06:18:02.829Z,99.60
2019-04-03T06:23:09.855Z,99.60
2019-04-03T06:28:16.918Z,99.60
2019-04-03T06:33:24.180Z,99.60
2019-04-03T06:38:31.113Z,99.60
2019-04-03T06:43:37.615Z,99.40
2019-04-03T06:48:45.050Z,99.10
2019-04-03T06:53:51.994Z,99.20
2019-04-03T06:58:58.951Z,98.10
2019-04-03T07:04:30.418Z,95.50
2019-04-03T07:09:38.684Z,95.30
2019-04-03T07:14:46.239Z,94.90
2019-04-03T07:19:53.460Z,95.30
2019-04-03T07:25:02.740Z,95.50
2019-04-03T07:30:09.379Z,94.30
2019-04-03T07:35:16.581Z,94.20
2019-04-03T07:40:22.587Z,94.00
2019-04-03T07:45:28.280Z,93.20
2019-04-03T07:50:36.511Z,93.30
2019-04-03T07:55:44.193Z,93.00
2019-04-03T08:00:50.699Z,93.20
2019-04-03T08:05:56.875Z,92.90
2019-04-03T08:11:03.359Z,91.60
2019-04-03T08:23:05.644Z,91.70
2019-04-03T08:28:14.545Z,91.40
2019-04-03T08:33:26.185Z,90.90
2019-04-03T08:39:13.718Z,89.30
2019-04-03T08:44:21.827Z,89.70
2019-04-03T08:49:28.758Z,90.70
2019-04-03T08:54:41.262Z,90.70
2019-04-03T08:59:47.623Z,89.60
2019-04-03T09:04:54.966Z,89.10
2019-04-03T09:10:02.144Z,88.00
2019-04-03T09:15:09.368Z,88.10
2019-04-03T09:20:15.620Z,87.30
2019-04-03T09:25:21.471Z,88.20
2019-04-03T09:30:27.683Z,89.40
2019-04-03T09:35:34.766Z,86.80
2019-04-03T09:40:42.100Z,87.30
2019-04-03T09:45:49.075Z,86.90
2019-04-03T09:50:56.624Z,86.90
2019-04-03T09:56:03.717Z,86.40
2019-04-03T10:01:13.800Z,86.70
2019-04-03T10:06:20.479Z,86.40
2019-04-03T10:11:28.006Z,86.40
2019-04-03T10:17:51.256Z,86.20
2019-04-03T10:29:40.962Z,86.60
2019-04-03T10:34:48.973Z,84.70
2019-04-03T10:40:04.955Z,84.70
2019-04-03T10:45:13.810Z,84.40
2019-04-03T10:50:21.008Z,84.20
2019-04-03T10:55:29.406Z,83.10
2019-04-03T11:00:37.542Z,83.20
2019-04-03T11:05:44.788Z,82.60
2019-04-03T11:10:50.721Z,80.80
2019-04-03T11:15:59.000Z,81.00
2019-04-03T11:21:05.264Z,77.40
2019-04-03T11:26:12.809Z,76.30
2019-04-03T11:31:27.460Z,77.90
2019-04-03T11:36:30.694Z,76.30
2019-04-03T11:41:38.385Z,75.20
2019-04-03T12:14:54.273Z,75.60
2019-04-03T12:55:29.817Z,77.80
2019-04-03T13:01:18.063Z,75.10
2019-04-03T13:19:35.923Z,72.70
2019-04-03T13:38:02.107Z,68.20
2019-04-03T13:57:27.383Z,69.60
2019-04-03T14:02:38.002Z,69.00
2019-04-03T14:28:59.020Z,69.80
2019-04-03T15:15:50.282Z,69.40
2019-04-03T15:21:03.245Z,70.10
2019-04-03T15:32:54.249Z,66.30
2019-04-03T15:38:01.258Z,71.60
2019-04-03T15:44:13.006Z,73.70
2019-04-03T15:49:20.047Z,72.00
2019-04-03T16:00:47.555Z,93.10
2019-04-03T16:06:02.753Z,94.20
2019-04-03T16:26:56.114Z,97.40
2019-04-03T16:39:10.433Z,98.80
2019-04-03T16:45:47.690Z,98.50
2019-04-03T16:52:36.525Z,99.20
2019-04-03T17:18:20.831Z,97.80
2019-04-03T17:23:27.873Z,98.50
2019-04-03T17:28:35.350Z,98.00
2019-04-03T17:33:42.539Z,97.80
2019-04-03T17:38:48.792Z,98.40
2019-04-03T17:43:55.879Z,99.30
2019-04-03T17:49:03.917Z,99.60
2019-04-03T17:54:10.642Z,99.60
2019-04-03T17:59:18.922Z,99.60
2019-04-03T18:04:26.407Z,99.60
2019-04-03T18:09:36.197Z,99.60
2019-04-03T18:14:47.777Z,99.60
2019-04-03T18:20:03.012Z,99.60
2019-04-03T18:25:12.411Z,99.60
2019-04-03T18:30:42.112Z,99.60
2019-04-03T18:35:49.589Z,99.60
2019-04-03T18:40:59.134Z,99.60
2019-04-03T18:46:06.409Z,99.60
2019-04-03T18:51:15.022Z,99.60
2019-04-03T18:56:22.597Z,99.60
2019-04-03T19:01:32.312Z,99.60
2019-04-03T19:06:39.082Z,99.60
2019-04-03T19:11:45.268Z,99.60
2019-04-03T19:16:52.734Z,99.60
2019-04-03T19:21:59.341Z,99.60
2019-04-03T19:27:06.036Z,99.60
2019-04-03T19:32:12.809Z,99.60
2019-04-03T19:37:19.087Z,99.60
2019-04-03T19:42:24.869Z,99.60
2019-04-03T19:47:30.811Z,99.60
2019-04-03T19:52:37.416Z,99.60
2019-04-03T20:05:43.670Z,99.60
2019-04-03T20:31:55.450Z,99.60
2019-04-03T20:37:02.915Z,99.60
2019-04-03T20:49:03.104Z,99.60
2019-04-03T20:55:20.476Z,99.60
2019-04-03T21:00:33.245Z,99.60
2019-04-03T21:05:41.365Z,99.60
2019-04-03T21:17:19.027Z,99.60
2019-04-03T21:24:16.323Z,99.60
2019-04-03T21:29:33.923Z,99.60
2019-04-03T21:34:42.792Z,99.60
2019-04-03T21:39:49.761Z,99.60
2019-04-03T21:45:02.231Z,99.60
2019-04-03T21:50:09.937Z,99.60
2019-04-03T21:55:16.402Z,99.60
2019-04-03T22:00:50.975Z,99.60
2019-04-03T22:06:02.441Z,99.60
2019-04-03T22:11:10.480Z,99.60
2019-04-03T22:16:20.842Z,99.60
2019-04-03T22:27:57.288Z,99.60
2019-04-03T22:33:09.034Z,99.60
2019-04-03T22:38:15.848Z,99.60
2019-04-03T22:43:22.161Z,99.60
2019-04-03T22:56:02.420Z,99.60
2019-04-03T23:01:08.281Z,99.60
2019-04-03T23:06:16.848Z,99.60
2019-04-03T23:12:03.631Z,99.60
2019-04-03T23:17:11.930Z,99.60
2019-04-03T23:22:20.548Z,99.60
2019-04-03T23:27:27.971Z,99.60
2019-04-03T23:32:35.490Z,99.60
2019-04-03T23:37:50.388Z,99.60
2019-04-03T23:42:58.882Z,99.60
2019-04-03T23:48:17.576Z,99.60
2019-04-03T23:53:24.657Z,99.60
2019-04-03T23:58:31.085Z,99.60
